createdAt,value
2023-05-24T00:00:25.861Z,916.00
2023-05-24T00:01:25.973Z,916.00
2023-05-24T00:02:25.940Z,913.00
2023-05-24T00:03:25.940Z,913.00
2023-05-24T00:04:25.935Z,912.00
2023-05-24T00:05:25.932Z,919.00
2023-05-24T00:06:25.882Z,917.00
2023-05-24T00:07:25.894Z,920.00
2023-05-24T00:08:25.918Z,919.00
2023-05-24T00:09:25.924Z,922.00
2023-05-24T00:10:25.938Z,922.00
2023-05-24T00:11:25.983Z,918.00
2023-05-24T00:12:25.974Z,919.00
2023-05-24T00:13:26.015Z,915.00
2023-05-24T00:14:26.019Z,916.00
2023-05-24T00:15:26.037Z,918.00
2023-05-24T00:16:26.093Z,918.00
2023-05-24T00:17:26.132Z,918.00
2023-05-24T00:18:26.108Z,920.00
2023-05-24T00:19:26.112Z,921.00
2023-05-24T00:20:26.145Z,918.00
2023-05-24T00:21:26.142Z,918.00
2023-05-24T00:22:26.261Z,920.00
2023-05-24T00:23:26.175Z,918.00
2023-05-24T00:24:26.193Z,921.00
2023-05-24T00:25:26.208Z,922.00
2023-05-24T00:26:26.236Z,925.00
2023-05-24T00:27:26.246Z,923.00
2023-05-24T00:28:26.264Z,923.00
2023-05-24T00:29:26.328Z,921.00
2023-05-24T00:30:26.301Z,922.00
2023-05-24T00:31:26.345Z,923.00
2023-05-24T00:32:26.353Z,925.00
2023-05-24T00:33:26.370Z,924.00
2023-05-24T00:34:26.369Z,923.00
2023-05-24T00:35:26.391Z,921.00
2023-05-24T00:36:26.421Z,921.00
2023-05-24T00:37:26.450Z,921.00
2023-05-24T00:38:26.457Z,922.00
2023-05-24T00:39:26.480Z,921.00
2023-05-24T00:40:26.502Z,918.00
2023-05-24T00:41:26.509Z,913.00
2023-05-24T00:42:26.533Z,915.00
2023-05-24T00:43:26.564Z,915.00
2023-05-24T00:44:26.585Z,915.00
2023-05-24T00:45:26.639Z,913.00
2023-05-24T00:46:26.746Z,913.00
2023-05-24T00:47:26.672Z,914.00
2023-05-24T00:48:26.693Z,912.00
2023-05-24T00:49:26.709Z,906.00
2023-05-24T00:50:26.741Z,906.00
2023-05-24T00:51:26.769Z,910.00
2023-05-24T00:52:26.803Z,912.00
2023-05-24T00:53:26.831Z,910.00
2023-05-24T00:54:26.839Z,908.00
2023-05-24T00:55:26.867Z,909.00
2023-05-24T00:56:26.913Z,913.00
2023-05-24T00:57:26.910Z,915.00
2023-05-24T00:58:26.943Z,915.00
2023-05-24T00:59:26.978Z,913.00
2023-05-24T01:00:26.999Z,911.00
2023-05-24T01:01:27.108Z,913.00
2023-05-24T01:02:27.130Z,908.00
2023-05-24T01:03:27.182Z,906.00
2023-05-24T01:04:27.109Z,909.00
2023-05-24T01:05:27.165Z,908.00
2023-05-24T01:06:27.209Z,910.00
2023-05-24T01:07:27.193Z,912.00
2023-05-24T01:08:27.220Z,909.00
2023-05-24T01:09:27.236Z,908.00
2023-05-24T01:10:27.266Z,907.00
2023-05-24T01:11:27.283Z,908.00
2023-05-24T01:12:27.362Z,909.00
2023-05-24T01:13:27.344Z,910.00
2023-05-24T01:14:27.366Z,908.00
2023-05-24T01:15:27.396Z,906.00
2023-05-24T01:16:27.490Z,909.00
2023-05-24T01:17:27.511Z,909.00
2023-05-24T01:18:27.479Z,911.00
2023-05-24T01:19:27.512Z,911.00
2023-05-24T01:20:27.555Z,913.00
2023-05-24T01:21:27.555Z,911.00
2023-05-24T01:22:27.579Z,909.00
2023-05-24T01:23:27.608Z,908.00
2023-05-24T01:24:27.687Z,906.00
2023-05-24T01:25:27.662Z,904.00
2023-05-24T01:26:27.702Z,904.00
2023-05-24T01:27:27.723Z,902.00
2023-05-24T01:28:27.765Z,905.00
2023-05-24T01:29:27.781Z,904.00
2023-05-24T01:30:27.875Z,903.00
2023-05-24T01:31:27.873Z,903.00
2023-05-24T01:32:27.882Z,905.00
2023-05-24T01:33:27.916Z,904.00
2023-05-24T01:34:27.916Z,903.00
2023-05-24T01:35:27.939Z,904.00
2023-05-24T01:36:27.969Z,904.00
2023-05-24T01:37:28.004Z,904.00
2023-05-24T01:38:28.028Z,908.00
2023-05-24T01:39:28.063Z,907.00
2023-05-24T01:40:28.073Z,904.00
2023-05-24T01:41:28.092Z,903.00
2023-05-24T01:42:28.114Z,900.00
2023-05-24T01:43:28.146Z,899.00
2023-05-24T01:44:28.168Z,895.00
2023-05-24T01:45:28.242Z,894.00
2023-05-24T01:46:28.235Z,894.00
2023-05-24T01:47:28.290Z,890.00
2023-05-24T01:48:28.266Z,894.00
2023-05-24T01:49:28.340Z,900.00
2023-05-24T01:50:28.325Z,905.00
2023-05-24T01:51:28.368Z,904.00
2023-05-24T01:52:28.399Z,902.00
2023-05-24T01:53:28.411Z,898.00
2023-05-24T01:54:28.453Z,897.00
2023-05-24T01:55:28.470Z,898.00
2023-05-24T01:56:28.496Z,897.00
2023-05-24T01:57:28.527Z,901.00
2023-05-24T01:58:28.559Z,897.00
2023-05-24T01:59:28.587Z,896.00
2023-05-24T02:00:28.650Z,896.00
2023-05-24T02:01:28.678Z,896.00
2023-05-24T02:02:28.767Z,892.00
2023-05-24T02:03:28.713Z,887.00
2023-05-24T02:04:28.746Z,888.00
2023-05-24T02:05:28.776Z,889.00
2023-05-24T02:06:28.794Z,890.00
2023-05-24T02:07:28.807Z,891.00
2023-05-24T02:08:28.856Z,888.00
2023-05-24T02:09:28.872Z,892.00
2023-05-24T02:10:28.904Z,892.00
2023-05-24T02:11:28.936Z,895.00
2023-05-24T02:12:28.953Z,894.00
2023-05-24T02:13:29.013Z,894.00
2023-05-24T02:14:29.027Z,890.00
2023-05-24T02:15:29.064Z,887.00
2023-05-24T02:16:29.126Z,885.00
2023-05-24T02:17:29.148Z,888.00
2023-05-24T02:18:29.141Z,888.00
2023-05-24T02:19:29.204Z,888.00
2023-05-24T02:20:29.284Z,889.00
2023-05-24T02:21:29.279Z,889.00
2023-05-24T02:22:29.265Z,890.00
2023-05-24T02:23:29.295Z,891.00
2023-05-24T02:24:29.339Z,890.00
2023-05-24T02:25:29.349Z,887.00
2023-05-24T02:26:29.392Z,887.00
2023-05-24T02:27:29.415Z,883.00
2023-05-24T02:28:29.463Z,885.00
2023-05-24T02:29:29.545Z,883.00
2023-05-24T02:30:29.533Z,882.00
2023-05-24T02:31:29.581Z,882.00
2023-05-24T02:32:29.615Z,883.00
2023-05-24T02:33:29.595Z,882.00
2023-05-24T02:34:29.628Z,880.00
2023-05-24T02:35:29.712Z,880.00
2023-05-24T02:36:29.699Z,876.00
2023-05-24T02:37:29.960Z,876.00
2023-05-24T02:38:29.765Z,878.00
2023-05-24T02:39:29.803Z,881.00
2023-05-24T02:40:29.847Z,885.00
2023-05-24T02:41:29.869Z,885.00
2023-05-24T02:42:29.936Z,884.00
2023-05-24T02:43:29.927Z,886.00
2023-05-24T02:44:29.967Z,886.00
2023-05-24T02:45:29.992Z,887.00
2023-05-24T02:46:30.095Z,885.00
2023-05-24T02:47:30.079Z,887.00
2023-05-24T02:48:30.101Z,887.00
2023-05-24T02:49:30.120Z,885.00
2023-05-24T02:50:30.158Z,890.00
2023-05-24T02:51:30.187Z,892.00
2023-05-24T02:52:30.218Z,892.00
2023-05-24T02:53:30.295Z,891.00
2023-05-24T02:54:30.281Z,891.00
2023-05-24T02:55:30.311Z,890.00
2023-05-24T02:56:30.347Z,891.00
2023-05-24T02:57:30.375Z,890.00
2023-05-24T02:58:30.461Z,891.00
2023-05-24T02:59:30.438Z,888.00
2023-05-24T03:00:30.468Z,891.00
2023-05-24T03:01:30.532Z,891.00
2023-05-24T03:02:30.588Z,890.00
2023-05-24T03:03:30.695Z,889.00
2023-05-24T03:04:30.600Z,885.00
2023-05-24T03:05:30.643Z,885.00
2023-05-24T03:06:30.661Z,881.00
2023-05-24T03:07:30.694Z,877.00
2023-05-24T03:08:30.728Z,877.00
2023-05-24T03:09:30.788Z,877.00
2023-05-24T03:10:30.787Z,876.00
2023-05-24T03:11:30.835Z,873.00
2023-05-24T03:12:30.858Z,871.00
2023-05-24T03:13:30.882Z,874.00
2023-05-24T03:14:30.905Z,876.00
2023-05-24T03:15:30.952Z,877.00
2023-05-24T03:16:30.981Z,875.00
2023-05-24T03:17:31.014Z,877.00
2023-05-24T03:18:31.038Z,875.00
2023-05-24T03:19:31.071Z,875.00
2023-05-24T03:20:31.372Z,871.00
2023-05-24T03:21:31.136Z,869.00
2023-05-24T03:22:31.388Z,871.00
2023-05-24T03:23:31.201Z,868.00
2023-05-24T03:24:31.240Z,865.00
2023-05-24T03:25:31.304Z,862.00
2023-05-24T03:26:31.308Z,860.00
2023-05-24T03:27:31.343Z,865.00
2023-05-24T03:28:31.376Z,869.00
2023-05-24T03:29:31.421Z,868.00
2023-05-24T03:30:31.451Z,873.00
2023-05-24T03:31:31.500Z,873.00
2023-05-24T03:32:31.495Z,875.00
2023-05-24T03:33:31.521Z,875.00
2023-05-24T03:34:31.563Z,875.00
2023-05-24T03:35:31.613Z,871.00
2023-05-24T03:36:31.631Z,869.00
2023-05-24T03:37:31.667Z,869.00
2023-05-24T03:38:31.694Z,872.00
2023-05-24T03:39:31.726Z,870.00
2023-05-24T03:40:31.760Z,872.00
2023-05-24T03:41:31.836Z,871.00
2023-05-24T03:42:31.836Z,868.00
2023-05-24T03:43:31.876Z,869.00
2023-05-24T03:44:31.974Z,869.00
2023-05-24T03:45:39.142Z,870.00
2023-05-24T03:46:32.095Z,870.00
2023-05-24T03:47:31.941Z,869.00
2023-05-24T03:48:31.916Z,869.00
2023-05-24T03:49:31.909Z,873.00
2023-05-24T03:50:31.902Z,876.00
2023-05-24T03:51:31.895Z,874.00
2023-05-24T03:52:31.907Z,873.00
2023-05-24T03:53:31.887Z,872.00
2023-05-24T03:54:31.870Z,873.00
2023-05-24T03:55:31.868Z,875.00
2023-05-24T03:56:31.863Z,875.00
2023-05-24T03:57:31.880Z,879.00
2023-05-24T03:58:31.846Z,879.00
2023-05-24T03:59:31.836Z,881.00
2023-05-24T04:00:31.838Z,878.00
2023-05-24T04:01:34.630Z,878.00
2023-05-24T04:02:31.893Z,875.00
2023-05-24T04:03:31.887Z,869.00
2023-05-24T04:04:31.804Z,871.00
2023-05-24T04:05:31.791Z,872.00
2023-05-24T04:06:31.781Z,862.00
2023-05-24T04:07:31.774Z,860.00
2023-05-24T04:08:31.763Z,865.00
2023-05-24T04:09:31.751Z,869.00
2023-05-24T04:10:31.757Z,867.00
2023-05-24T04:11:31.773Z,867.00
2023-05-24T04:12:31.758Z,866.00
2023-05-24T04:13:31.752Z,871.00
2023-05-24T04:14:31.730Z,869.00
2023-05-24T04:15:31.716Z,868.00
2023-05-24T04:16:31.820Z,866.00
2023-05-24T04:17:31.821Z,865.00
2023-05-24T04:18:31.776Z,866.00
2023-05-24T04:19:31.686Z,864.00
2023-05-24T04:20:31.787Z,864.00
2023-05-24T04:21:31.681Z,864.00
2023-05-24T04:22:31.678Z,866.00
2023-05-24T04:23:31.665Z,865.00
2023-05-24T04:24:31.680Z,864.00
2023-05-24T04:25:31.646Z,864.00
2023-05-24T04:26:31.645Z,864.00
2023-05-24T04:27:31.648Z,863.00
2023-05-24T04:28:31.630Z,864.00
2023-05-24T04:29:31.683Z,864.00
2023-05-24T04:30:31.671Z,864.00
2023-05-24T04:31:31.715Z,863.00
2023-05-24T04:32:31.781Z,865.00
2023-05-24T04:33:31.759Z,871.00
2023-05-24T04:34:31.814Z,870.00
2023-05-24T04:35:31.833Z,869.00
2023-05-24T04:36:31.864Z,870.00
2023-05-24T04:37:31.904Z,870.00
2023-05-24T04:38:31.929Z,865.00
2023-05-24T04:39:31.969Z,862.00
2023-05-24T04:40:32.004Z,862.00
2023-05-24T04:41:32.119Z,861.00
2023-05-24T04:42:32.068Z,857.00
2023-05-24T04:43:32.102Z,859.00
2023-05-24T04:44:32.164Z,860.00
2023-05-24T04:45:32.185Z,859.00
2023-05-24T04:46:32.238Z,859.00
2023-05-24T04:47:32.275Z,858.00
2023-05-24T04:48:32.274Z,855.00
2023-05-24T04:49:32.306Z,853.00
2023-05-24T04:50:32.409Z,854.00
2023-05-24T04:51:32.448Z,855.00
2023-05-24T04:52:32.411Z,850.00
2023-05-24T04:53:32.446Z,849.00
2023-05-24T04:54:32.481Z,852.00
2023-05-24T04:55:32.511Z,854.00
2023-05-24T04:56:32.546Z,858.00
2023-05-24T04:57:32.589Z,859.00
2023-05-24T04:58:32.610Z,859.00
2023-05-24T04:59:32.657Z,860.00
2023-05-24T05:00:32.680Z,861.00
2023-05-24T05:01:32.786Z,858.00
2023-05-24T05:02:32.788Z,858.00
2023-05-24T05:03:32.877Z,856.00
2023-05-24T05:04:32.819Z,857.00
2023-05-24T05:05:32.872Z,856.00
2023-05-24T05:06:32.917Z,855.00
2023-05-24T05:07:32.910Z,855.00
2023-05-24T05:08:32.942Z,856.00
2023-05-24T05:09:32.987Z,855.00
2023-05-24T05:10:33.016Z,854.00
2023-05-24T05:11:33.043Z,856.00
2023-05-24T05:12:33.090Z,858.00
2023-05-24T05:13:33.115Z,853.00
2023-05-24T05:14:33.153Z,851.00
2023-05-24T05:15:33.235Z,851.00
2023-05-24T05:16:33.271Z,848.00
2023-05-24T05:17:33.302Z,847.00
2023-05-24T05:18:33.296Z,845.00
2023-05-24T05:19:33.331Z,848.00
2023-05-24T05:20:33.475Z,854.00
2023-05-24T05:21:33.401Z,857.00
2023-05-24T05:22:33.412Z,858.00
2023-05-24T05:23:33.449Z,854.00
2023-05-24T05:24:33.951Z,860.00
2023-05-24T05:25:33.517Z,859.00
2023-05-24T05:26:33.566Z,861.00
2023-05-24T05:27:33.617Z,865.00
2023-05-24T05:28:33.631Z,867.00
2023-05-24T05:29:33.670Z,868.00
2023-05-24T05:30:33.677Z,871.00
2023-05-24T05:31:33.871Z,872.00
2023-05-24T05:32:33.886Z,876.00
2023-05-24T05:33:33.865Z,876.00
2023-05-24T05:34:33.984Z,880.00
2023-05-24T05:35:33.845Z,887.00
2023-05-24T05:36:37.165Z,895.00
2023-05-24T05:37:33.869Z,893.00
2023-05-24T05:38:33.854Z,894.00
2023-05-24T05:39:33.860Z,897.00
2023-05-24T05:40:33.866Z,894.00
2023-05-24T05:41:33.963Z,894.00
2023-05-24T05:42:33.837Z,901.00
2023-05-24T05:43:33.834Z,908.00
2023-05-24T05:44:33.958Z,915.00
2023-05-24T05:45:33.802Z,917.00
2023-05-24T05:46:34.008Z,921.00
2023-05-24T05:47:33.841Z,927.00
2023-05-24T05:48:33.834Z,928.00
2023-05-24T05:49:33.833Z,931.00
2023-05-24T05:50:33.784Z,940.00
2023-05-24T05:51:37.148Z,936.00
2023-05-24T05:52:33.761Z,936.00
2023-05-24T05:53:33.766Z,933.00
2023-05-24T05:54:33.755Z,932.00
2023-05-24T05:55:49.553Z,933.00
2023-05-24T05:56:41.371Z,939.00
2023-05-24T05:57:36.970Z,957.00
2023-05-24T05:58:33.731Z,987.00
2023-05-24T05:59:49.347Z,1001.00
2023-05-24T06:00:34.737Z,999.00
2023-05-24T06:01:41.414Z,1003.00
2023-05-24T06:03:37.110Z,1062.00
2023-05-24T06:04:33.697Z,1072.00
2023-05-24T06:06:35.489Z,1092.00
2023-05-24T06:07:33.959Z,1099.00
2023-05-24T06:08:33.655Z,1113.00
2023-05-24T06:09:33.639Z,1126.00
2023-05-24T06:10:33.624Z,1177.00
2023-05-24T06:11:33.960Z,1196.00
2023-05-24T06:12:33.991Z,1216.00
2023-05-24T06:13:33.619Z,1238.00
2023-05-24T06:14:33.606Z,1242.00
2023-05-24T06:15:33.603Z,1256.00
2023-05-24T06:16:33.632Z,1275.00
2023-05-24T06:17:33.619Z,1284.00
2023-05-24T06:18:33.585Z,1297.00
2023-05-24T06:19:33.582Z,1309.00
2023-05-24T06:20:33.640Z,1341.00
2023-05-24T06:21:33.578Z,1381.00
2023-05-24T06:22:33.988Z,1395.00
2023-05-24T06:23:33.574Z,1403.00
2023-05-24T06:25:14.799Z,1300.00
2023-05-24T06:26:08.186Z,1121.00
2023-05-24T06:27:08.156Z,1037.00
2023-05-24T06:28:08.153Z,960.00
2023-05-24T06:29:08.506Z,943.00
2023-05-24T06:30:08.198Z,927.00
2023-05-24T06:31:08.269Z,896.00
2023-05-24T06:32:08.136Z,855.00
2023-05-24T06:33:08.162Z,813.00
2023-05-24T06:34:08.382Z,774.00
2023-05-24T06:35:08.105Z,763.00
2023-05-24T06:36:08.090Z,758.00
2023-05-24T06:37:08.080Z,754.00
2023-05-24T06:38:08.105Z,760.00
2023-05-24T06:39:08.384Z,746.00
2023-05-24T06:40:08.057Z,715.00
2023-05-24T06:41:08.381Z,709.00
2023-05-24T06:42:08.041Z,714.00
2023-05-24T06:43:08.080Z,711.00
2023-05-24T06:44:08.066Z,707.00
2023-05-24T06:45:08.081Z,699.00
2023-05-24T06:46:08.382Z,696.00
2023-05-24T06:47:08.162Z,691.00
2023-05-24T06:48:08.263Z,694.00
2023-05-24T06:49:23.753Z,701.00
2023-05-24T06:50:15.561Z,709.00
2023-05-24T06:51:08.201Z,715.00
2023-05-24T06:52:15.774Z,723.00
2023-05-24T06:53:11.439Z,762.00
2023-05-24T06:54:08.142Z,774.00
2023-05-24T06:55:08.112Z,785.00
2023-05-24T06:56:08.424Z,792.00
2023-05-24T06:57:16.256Z,797.00
2023-05-24T06:58:08.101Z,803.00
2023-05-24T06:59:08.091Z,812.00
2023-05-24T07:00:08.079Z,815.00
2023-05-24T07:01:11.581Z,818.00
2023-05-24T07:02:08.077Z,820.00
2023-05-24T07:03:08.080Z,824.00
2023-05-24T07:04:08.092Z,823.00
2023-05-24T07:05:08.221Z,820.00
2023-05-24T07:06:08.389Z,817.00
2023-05-24T07:07:08.387Z,814.00
2023-05-24T07:08:08.024Z,811.00
2023-05-24T07:09:08.078Z,812.00
2023-05-24T07:10:08.031Z,809.00
2023-05-24T07:11:08.395Z,813.00
2023-05-24T07:12:09.180Z,813.00
2023-05-24T07:13:08.363Z,812.00
2023-05-24T07:14:07.984Z,815.00
2023-05-24T07:15:07.978Z,813.00
2023-05-24T07:16:07.973Z,816.00
2023-05-24T07:17:08.435Z,820.00
2023-05-24T07:18:08.110Z,823.00
2023-05-24T07:19:08.010Z,826.00
2023-05-24T07:20:08.069Z,834.00
2023-05-24T07:21:08.050Z,836.00
2023-05-24T07:22:08.376Z,831.00
2023-05-24T07:23:08.396Z,833.00
2023-05-24T07:24:08.100Z,829.00
2023-05-24T07:25:08.128Z,830.00
2023-05-24T07:26:08.117Z,830.00
2023-05-24T07:27:08.426Z,832.00
2023-05-24T07:28:08.144Z,835.00
2023-05-24T07:29:08.148Z,838.00
2023-05-24T07:30:19.737Z,839.00
2023-05-24T07:31:08.416Z,838.00
2023-05-24T07:32:08.155Z,840.00
2023-05-24T07:33:08.203Z,838.00
2023-05-24T07:34:08.371Z,840.00
2023-05-24T07:35:09.111Z,840.00
2023-05-24T07:36:23.703Z,840.00
2023-05-24T07:37:08.753Z,840.00
2023-05-24T07:38:25.427Z,845.00
2023-05-24T07:39:15.737Z,844.00
2023-05-24T07:40:08.466Z,849.00
2023-05-24T07:41:12.662Z,857.00
2023-05-24T07:42:08.797Z,864.00
2023-05-24T07:43:11.545Z,873.00
2023-05-24T07:44:08.409Z,880.00
2023-05-24T07:46:23.803Z,897.00
2023-05-24T07:47:08.433Z,924.00
2023-05-24T07:48:11.643Z,945.00
2023-05-24T07:49:15.538Z,956.00
2023-05-24T07:50:11.628Z,986.00
2023-05-24T07:51:08.127Z,1002.00
2023-05-24T07:52:08.108Z,1039.00
2023-05-24T07:53:08.120Z,1075.00
2023-05-24T07:54:08.102Z,1083.00
2023-05-24T07:55:15.875Z,1083.00
2023-05-24T07:56:09.693Z,1084.00
2023-05-24T07:57:09.540Z,1085.00
2023-05-24T07:58:08.274Z,1083.00
2023-05-24T07:59:08.331Z,1078.00
2023-05-24T08:00:15.778Z,1083.00
2023-05-24T08:01:11.765Z,1078.00
2023-05-24T08:02:08.327Z,1084.00
2023-05-24T08:03:08.461Z,1082.00
2023-05-24T08:04:08.368Z,1074.00
2023-05-24T08:05:08.316Z,1070.00
2023-05-24T08:06:08.357Z,1068.00
2023-05-24T08:07:10.880Z,1068.00
2023-05-24T08:08:08.300Z,1068.00
2023-05-24T08:09:08.380Z,1070.00
2023-05-24T08:10:09.446Z,1068.00
2023-05-24T08:11:08.288Z,1071.00
2023-05-24T08:12:08.382Z,1071.00
2023-05-24T08:13:08.279Z,1072.00
2023-05-24T08:14:08.260Z,1073.00
2023-05-24T08:15:08.255Z,1074.00
2023-05-24T08:16:08.263Z,1075.00
2023-05-24T08:17:08.244Z,1076.00
2023-05-24T08:18:08.335Z,1075.00
2023-05-24T08:19:08.236Z,1073.00
2023-05-24T08:20:08.283Z,1068.00
2023-05-24T08:21:09.134Z,1071.00
2023-05-24T08:22:08.193Z,1070.00
2023-05-24T08:23:08.174Z,1069.00
2023-05-24T08:24:09.432Z,1072.00
2023-05-24T08:25:08.237Z,1070.00
2023-05-24T08:26:08.448Z,1067.00
2023-05-24T08:27:08.227Z,1064.00
2023-05-24T08:28:08.334Z,1058.00
2023-05-24T08:29:08.312Z,1055.00
2023-05-24T08:30:08.248Z,1051.00
2023-05-24T08:31:08.425Z,1053.00
2023-05-24T08:32:08.296Z,1053.00
2023-05-24T08:33:08.258Z,1055.00
2023-05-24T08:34:40.049Z,1055.00
2023-05-24T08:35:20.245Z,1054.00
2023-05-24T08:36:08.520Z,1055.00
2023-05-24T08:37:08.195Z,1055.00
2023-05-24T08:38:08.191Z,1048.00
2023-05-24T08:39:24.001Z,1048.00
2023-05-24T08:40:08.398Z,1051.00
2023-05-24T08:41:08.170Z,1047.00
2023-05-24T08:42:09.798Z,1050.00
2023-05-24T08:43:08.155Z,1049.00
2023-05-24T08:44:08.158Z,1045.00
2023-05-24T08:45:08.534Z,1050.00
2023-05-24T08:46:08.152Z,1049.00
2023-05-24T08:47:11.334Z,1052.00
2023-05-24T08:48:08.194Z,1051.00
2023-05-24T08:49:08.342Z,1050.00
2023-05-24T08:50:08.541Z,1048.00
2023-05-24T08:51:08.100Z,1050.00
2023-05-24T08:52:08.080Z,1053.00
2023-05-24T08:53:08.074Z,1056.00
2023-05-24T08:54:08.066Z,1057.00
2023-05-24T08:55:08.062Z,1057.00
2023-05-24T08:56:08.434Z,1059.00
2023-05-24T08:57:08.047Z,1061.00
2023-05-24T08:58:08.045Z,1060.00
2023-05-24T08:59:08.048Z,1059.00
2023-05-24T09:00:08.031Z,1052.00
2023-05-24T09:01:08.544Z,1056.00
2023-05-24T09:02:08.125Z,1058.00
2023-05-24T09:03:08.143Z,1058.00
2023-05-24T09:04:08.560Z,1052.00
2023-05-24T09:05:08.146Z,1048.00
2023-05-24T09:06:07.985Z,1046.00
2023-05-24T09:07:07.976Z,1044.00
2023-05-24T09:08:11.176Z,1044.00
2023-05-24T09:09:08.420Z,1041.00
2023-05-24T09:10:07.962Z,1043.00
2023-05-24T09:11:07.955Z,1045.00
2023-05-24T09:12:07.943Z,1043.00
2023-05-24T09:13:07.942Z,1045.00
2023-05-24T09:14:08.293Z,1042.00
2023-05-24T09:15:08.216Z,1040.00
2023-05-24T09:16:07.950Z,1036.00
2023-05-24T09:17:07.948Z,1031.00
2023-05-24T09:18:07.949Z,1024.00
2023-05-24T09:19:07.901Z,1022.00
2023-05-24T09:20:07.972Z,1020.00
2023-05-24T09:21:08.559Z,1024.00
2023-05-24T09:22:08.319Z,1026.00
2023-05-24T09:23:07.866Z,1026.00
2023-05-24T09:24:07.878Z,1031.00
2023-05-24T09:25:07.856Z,697.00
2023-05-24T09:26:07.861Z,687.00
2023-05-24T09:27:07.940Z,670.00
2023-05-24T09:28:07.840Z,627.00
2023-05-24T09:29:07.825Z,599.00
2023-05-24T09:30:07.828Z,588.00
2023-05-24T09:31:08.420Z,584.00
2023-05-24T09:32:07.970Z,585.00
2023-05-24T09:33:08.931Z,577.00
2023-05-24T09:34:07.803Z,568.00
2023-05-24T09:35:07.776Z,575.00
2023-05-24T09:36:07.774Z,551.00
2023-05-24T09:37:07.929Z,560.00
2023-05-24T09:38:07.767Z,556.00
2023-05-24T09:39:07.756Z,552.00
2023-05-24T09:40:07.945Z,577.00
2023-05-24T09:41:07.754Z,615.00
2023-05-24T09:42:07.926Z,613.00
2023-05-24T09:43:07.756Z,619.00
2023-05-24T09:44:07.757Z,671.00
2023-05-24T09:45:07.819Z,675.00
2023-05-24T09:46:07.802Z,678.00
2023-05-24T09:47:08.051Z,683.00
2023-05-24T09:48:07.884Z,730.00
2023-05-24T09:49:08.243Z,741.00
2023-05-24T09:50:07.919Z,758.00
2023-05-24T09:51:08.000Z,797.00
2023-05-24T09:52:08.141Z,816.00
2023-05-24T09:53:08.070Z,835.00
2023-05-24T09:54:08.135Z,858.00
2023-05-24T09:55:08.134Z,873.00
2023-05-24T09:56:09.166Z,884.00
2023-05-24T09:57:08.436Z,897.00
2023-05-24T09:58:08.227Z,932.00
2023-05-24T09:59:08.242Z,954.00
2023-05-24T10:00:08.225Z,972.00
2023-05-24T10:01:08.488Z,991.00
2023-05-24T10:02:08.234Z,1010.00
2023-05-24T10:03:08.278Z,1033.00
2023-05-24T10:04:10.244Z,1041.00
2023-05-24T10:05:08.500Z,1057.00
2023-05-24T10:06:08.230Z,1071.00
2023-05-24T10:07:08.460Z,1102.00
2023-05-24T10:08:08.191Z,1115.00
2023-05-24T10:09:08.207Z,1146.00
2023-05-24T10:10:08.184Z,1185.00
2023-05-24T10:11:08.201Z,1183.00
2023-05-24T10:12:08.173Z,1186.00
2023-05-24T10:13:08.461Z,1221.00
2023-05-24T10:14:08.222Z,1229.00
2023-05-24T10:15:11.347Z,1235.00
2023-05-24T10:16:08.138Z,1282.00
2023-05-24T10:17:08.281Z,1293.00
2023-05-24T10:19:08.129Z,1297.00
2023-05-24T10:20:08.165Z,1314.00
2023-05-24T10:21:08.177Z,1326.00
2023-05-24T10:22:08.104Z,1343.00
2023-05-24T10:23:08.448Z,1353.00
2023-05-24T10:24:09.048Z,1366.00
2023-05-24T10:25:08.081Z,1387.00
2023-05-24T10:26:08.071Z,1411.00
2023-05-24T10:27:08.452Z,1428.00
2023-05-24T10:28:08.470Z,1435.00
2023-05-24T10:29:08.060Z,1469.00
2023-05-24T10:30:09.549Z,1515.00
2023-05-24T10:31:08.099Z,1527.00
2023-05-24T10:32:08.024Z,1530.00
2023-05-24T10:33:08.574Z,1539.00
2023-05-24T10:34:08.836Z,1553.00
2023-05-24T10:35:08.032Z,1566.00
2023-05-24T10:36:09.815Z,1611.00
2023-05-24T10:37:08.029Z,1614.00
2023-05-24T10:38:08.458Z,1627.00
2023-05-24T10:39:07.980Z,1629.00
2023-05-24T10:40:07.982Z,1633.00
2023-05-24T10:41:08.203Z,1647.00
2023-05-24T10:41:46.628Z,1295.00
2023-05-24T10:42:09.846Z,1665.00
2023-05-24T10:43:07.981Z,1679.00
2023-05-24T10:44:10.144Z,1700.00
2023-05-24T10:45:07.938Z,1714.00
2023-05-24T10:46:08.006Z,1730.00
2023-05-24T10:47:07.956Z,1747.00
2023-05-24T10:48:08.022Z,1756.00
2023-05-24T10:49:07.928Z,1772.00
2023-05-24T10:50:07.923Z,1807.00
2023-05-24T10:51:07.908Z,1805.00
2023-05-24T10:52:07.968Z,1817.00
2023-05-24T10:53:08.003Z,1825.00
2023-05-24T10:54:09.030Z,1834.00
2023-05-24T10:55:07.871Z,1830.00
2023-05-24T10:56:07.871Z,1856.00
2023-05-24T10:57:07.864Z,1863.00
2023-05-24T10:58:07.860Z,1871.00
2023-05-24T10:59:07.903Z,1879.00
2023-05-24T11:00:09.106Z,1915.00
2023-05-24T11:01:07.980Z,1926.00
2023-05-24T11:02:08.531Z,1928.00
2023-05-24T11:03:08.116Z,1933.00
2023-05-24T11:04:08.959Z,1938.00
2023-05-24T11:05:08.180Z,1961.00
2023-05-24T11:06:08.302Z,1968.00
2023-05-24T11:07:08.284Z,1972.00
2023-05-24T11:08:08.300Z,1983.00
2023-05-24T11:09:08.712Z,1991.00
2023-05-24T11:10:08.372Z,2009.00
2023-05-24T11:11:23.244Z,2020.00
2023-05-24T11:12:08.436Z,2033.00
2023-05-24T11:13:08.410Z,2038.00
2023-05-24T11:14:08.398Z,2043.00
2023-05-24T11:15:08.413Z,2052.00
2023-05-24T11:16:08.463Z,2060.00
2023-05-24T11:17:08.398Z,2076.00
2023-05-24T11:18:08.473Z,2075.00
2023-05-24T11:19:08.370Z,2071.00
2023-05-24T11:20:08.405Z,2073.00
2023-05-24T11:21:08.350Z,2072.00
2023-05-24T11:22:08.380Z,2066.00
2023-05-24T11:23:08.366Z,2063.00
2023-05-24T11:24:08.340Z,2065.00
2023-05-24T11:25:08.361Z,2068.00
2023-05-24T11:26:08.331Z,2069.00
2023-05-24T11:27:08.340Z,2066.00
2023-05-24T11:28:08.377Z,1950.00
2023-05-24T11:29:08.327Z,1865.00
2023-05-24T11:30:08.984Z,1851.00
2023-05-24T11:31:08.332Z,1940.00
2023-05-24T11:32:08.339Z,1944.00
2023-05-24T11:33:08.295Z,1965.00
2023-05-24T11:34:08.269Z,1974.00
2023-05-24T11:35:08.489Z,1981.00
2023-05-24T11:36:08.265Z,1991.00
2023-05-24T11:37:08.481Z,2001.00
2023-05-24T11:38:08.235Z,2011.00
2023-05-24T11:39:08.264Z,2016.00
2023-05-24T11:40:08.323Z,2007.00
2023-05-24T11:41:08.413Z,2001.00
2023-05-24T11:42:08.434Z,1999.00
2023-05-24T11:43:08.486Z,2002.00
2023-05-24T11:44:08.543Z,2004.00
2023-05-24T11:45:08.610Z,2022.00
2023-05-24T11:46:08.719Z,2031.00
2023-05-24T11:47:08.758Z,1788.00
2023-05-24T11:48:08.879Z,1608.00
2023-05-24T11:49:08.860Z,1697.00
2023-05-24T11:50:08.876Z,1752.00
2023-05-24T11:51:08.934Z,1841.00
2023-05-24T11:52:08.979Z,1939.00
2023-05-24T11:53:09.033Z,1983.00
2023-05-24T11:54:10.209Z,2008.00
2023-05-24T11:55:09.410Z,2020.00
2023-05-24T11:56:09.347Z,2030.00
2023-05-24T11:57:09.296Z,2035.00
2023-05-24T11:58:09.324Z,2040.00
2023-05-24T11:59:09.527Z,2040.00
2023-05-24T12:00:09.458Z,2043.00
2023-05-24T12:01:09.498Z,2041.00
2023-05-24T12:02:09.597Z,2024.00
2023-05-24T12:03:09.751Z,2030.00
2023-05-24T12:04:10.242Z,2055.00
2023-05-24T12:05:09.861Z,2056.00
2023-05-24T12:06:09.775Z,2058.00
2023-05-24T12:07:09.993Z,2051.00
2023-05-24T12:08:12.362Z,2042.00
2023-05-24T12:09:10.000Z,2084.00
2023-05-24T12:10:09.920Z,2102.00
2023-05-24T12:11:09.846Z,2112.00
2023-05-24T12:12:10.019Z,2116.00
2023-05-24T12:13:09.894Z,2128.00
2023-05-24T12:14:09.821Z,2138.00
2023-05-24T12:15:09.815Z,2155.00
2023-05-24T12:16:09.818Z,2173.00
2023-05-24T12:17:09.805Z,2182.00
2023-05-24T12:18:09.844Z,2189.00
2023-05-24T12:19:20.127Z,2202.00
2023-05-24T12:20:09.817Z,2208.00
2023-05-24T12:21:09.771Z,2232.00
2023-05-24T12:22:09.762Z,2246.00
2023-05-24T12:23:09.786Z,2259.00
2023-05-24T12:24:09.785Z,2270.00